sensor_id;sensor_type;location;lat;lon;timestamp;P1;durP1;ratioP1;P2;durP2;ratioP2
57826;SDS011;43656;57.746;11.780;2023-04-03T00:00:24;2.33;;;0.80;;
57826;SDS011;43656;57.746;11.780;2023-04-03T00:02:50;4.07;;;1.10;;
57826;SDS011;43656;57.746;11.780;2023-04-03T00:05:17;4.30;;;1.42;;
57826;SDS011;43656;57.746;11.780;2023-04-03T00:07:42;2.17;;;0.90;;
57826;SDS011;43656;57.746;11.780;2023-04-03T00:10:08;3.67;;;1.08;;
57826;SDS011;43656;57.746;11.780;2023-04-03T00:12:33;3.50;;;0.95;;
57826;SDS011;43656;57.746;11.780;2023-04-03T00:14:59;3.58;;;0.95;;
57826;SDS011;43656;57.746;11.780;2023-04-03T00:17:24;2.55;;;1.17;;
57826;SDS011;43656;57.746;11.780;2023-04-03T00:19:50;3.00;;;1.20;;
57826;SDS011;43656;57.746;11.780;2023-04-03T00:22:15;3.42;;;1.15;;
57826;SDS011;43656;57.746;11.780;2023-04-03T00:24:41;4.18;;;1.00;;
57826;SDS011;43656;57.746;11.780;2023-04-03T00:27:07;3.22;;;0.98;;
57826;SDS011;43656;57.746;11.780;2023-04-03T00:29:32;2.72;;;1.10;;
57826;SDS011;43656;57.746;11.780;2023-04-03T00:31:57;4.38;;;1.00;;
57826;SDS011;43656;57.746;11.780;2023-04-03T00:34:23;3.92;;;1.17;;
57826;SDS011;43656;57.746;11.780;2023-04-03T00:36:48;3.40;;;1.10;;
57826;SDS011;43656;57.746;11.780;2023-04-03T00:39:14;3.88;;;0.90;;
57826;SDS011;43656;57.746;11.780;2023-04-03T00:41:40;3.75;;;1.20;;
57826;SDS011;43656;57.746;11.780;2023-04-03T00:44:21;1.63;;;1.05;;
57826;SDS011;43656;57.746;11.780;2023-04-03T00:47:11;3.45;;;1.10;;
57826;SDS011;43656;57.746;11.780;2023-04-03T00:49:39;3.17;;;1.08;;
57826;SDS011;43656;57.746;11.780;2023-04-03T00:52:07;3.78;;;1.02;;
57826;SDS011;43656;57.746;11.780;2023-04-03T00:54:38;2.75;;;0.80;;
57826;SDS011;43656;57.746;11.780;2023-04-03T00:57:06;2.70;;;0.90;;
57826;SDS011;43656;57.746;11.780;2023-04-03T00:59:34;4.72;;;0.95;;
57826;SDS011;43656;57.746;11.780;2023-04-03T01:02:05;3.22;;;1.13;;
57826;SDS011;43656;57.746;11.780;2023-04-03T01:04:32;4.13;;;1.25;;
57826;SDS011;43656;57.746;11.780;2023-04-03T01:07:12;3.55;;;1.00;;
57826;SDS011;43656;57.746;11.780;2023-04-03T01:09:42;3.58;;;1.25;;
57826;SDS011;43656;57.746;11.780;2023-04-03T01:12:15;3.47;;;1.05;;
57826;SDS011;43656;57.746;11.780;2023-04-03T01:14:43;4.70;;;0.75;;
57826;SDS011;43656;57.746;11.780;2023-04-03T01:28:04;3.05;;;0.93;;
57826;SDS011;43656;57.746;11.780;2023-04-03T01:30:31;3.53;;;1.00;;
57826;SDS011;43656;57.746;11.780;2023-04-03T01:32:59;1.73;;;0.80;;
57826;SDS011;43656;57.746;11.780;2023-04-03T01:35:25;2.83;;;1.25;;
57826;SDS011;43656;57.746;11.780;2023-04-03T01:37:50;4.28;;;1.00;;
57826;SDS011;43656;57.746;11.780;2023-04-03T01:40:15;3.45;;;0.93;;
57826;SDS011;43656;57.746;11.780;2023-04-03T01:42:41;3.80;;;0.80;;
57826;SDS011;43656;57.746;11.780;2023-04-03T01:45:07;5.00;;;1.40;;
57826;SDS011;43656;57.746;11.780;2023-04-03T01:47:33;4.65;;;0.80;;
57826;SDS011;43656;57.746;11.780;2023-04-03T01:49:59;2.75;;;0.80;;
57826;SDS011;43656;57.746;11.780;2023-04-03T01:52:24;4.53;;;0.80;;
57826;SDS011;43656;57.746;11.780;2023-04-03T01:54:49;5.38;;;1.15;;
57826;SDS011;43656;57.746;11.780;2023-04-03T01:57:15;2.33;;;0.90;;
57826;SDS011;43656;57.746;11.780;2023-04-03T01:59:41;1.23;;;0.93;;
57826;SDS011;43656;57.746;11.780;2023-04-03T02:02:07;2.33;;;0.80;;
57826;SDS011;43656;57.746;11.780;2023-04-03T02:04:32;2.35;;;0.77;;
57826;SDS011;43656;57.746;11.780;2023-04-03T02:06:58;3.42;;;0.88;;
57826;SDS011;43656;57.746;11.780;2023-04-03T02:09:23;3.67;;;1.05;;
57826;SDS011;43656;57.746;11.780;2023-04-03T02:11:49;2.55;;;0.82;;
57826;SDS011;43656;57.746;11.780;2023-04-03T02:14:14;6.18;;;1.00;;
57826;SDS011;43656;57.746;11.780;2023-04-03T02:16:40;2.90;;;0.98;;
57826;SDS011;43656;57.746;11.780;2023-04-03T02:19:06;2.20;;;0.80;;
57826;SDS011;43656;57.746;11.780;2023-04-03T02:21:31;2.75;;;0.90;;
57826;SDS011;43656;57.746;11.780;2023-04-03T02:23:57;2.60;;;0.98;;
57826;SDS011;43656;57.746;11.780;2023-04-03T02:26:22;1.75;;;0.68;;
57826;SDS011;43656;57.746;11.780;2023-04-03T02:28:48;2.45;;;0.80;;
57826;SDS011;43656;57.746;11.780;2023-04-03T02:31:13;3.42;;;0.90;;
57826;SDS011;43656;57.746;11.780;2023-04-03T02:33:39;4.28;;;1.00;;
57826;SDS011;43656;57.746;11.780;2023-04-03T02:36:05;4.22;;;1.02;;
57826;SDS011;43656;57.746;11.780;2023-04-03T02:38:31;2.75;;;0.80;;
57826;SDS011;43656;57.746;11.780;2023-04-03T02:41:00;2.13;;;1.10;;
57826;SDS011;43656;57.746;11.780;2023-04-03T02:43:30;3.03;;;0.80;;
57826;SDS011;43656;57.746;11.780;2023-04-03T02:45:56;4.15;;;1.08;;
57826;SDS011;43656;57.746;11.780;2023-04-03T02:48:21;3.20;;;0.93;;
57826;SDS011;43656;57.746;11.780;2023-04-03T02:50:48;3.05;;;0.90;;
57826;SDS011;43656;57.746;11.780;2023-04-03T02:53:13;4.45;;;0.85;;
57826;SDS011;43656;57.746;11.780;2023-04-03T02:55:39;3.28;;;0.70;;
57826;SDS011;43656;57.746;11.780;2023-04-03T02:58:04;1.10;;;0.60;;
57826;SDS011;43656;57.746;11.780;2023-04-03T03:00:29;3.05;;;0.80;;
57826;SDS011;43656;57.746;11.780;2023-04-03T03:02:55;4.15;;;0.75;;
57826;SDS011;43656;57.746;11.780;2023-04-03T03:05:21;2.83;;;0.95;;
57826;SDS011;43656;57.746;11.780;2023-04-03T03:07:46;3.83;;;1.02;;
57826;SDS011;43656;57.746;11.780;2023-04-03T03:10:12;1.42;;;0.68;;
57826;SDS011;43656;57.746;11.780;2023-04-03T03:12:37;3.78;;;1.00;;
57826;SDS011;43656;57.746;11.780;2023-04-03T03:15:03;2.85;;;0.88;;
57826;SDS011;43656;57.746;11.780;2023-04-03T03:17:29;4.30;;;1.00;;
57826;SDS011;43656;57.746;11.780;2023-04-03T03:19:55;3.97;;;0.90;;
57826;SDS011;43656;57.746;11.780;2023-04-03T03:22:21;3.17;;;1.15;;
57826;SDS011;43656;57.746;11.780;2023-04-03T03:24:46;3.22;;;0.95;;
57826;SDS011;43656;57.746;11.780;2023-04-03T03:27:12;2.60;;;0.70;;
57826;SDS011;43656;57.746;11.780;2023-04-03T03:29:37;2.20;;;0.80;;
57826;SDS011;43656;57.746;11.780;2023-04-03T03:32:03;3.45;;;1.00;;
57826;SDS011;43656;57.746;11.780;2023-04-03T03:34:28;4.35;;;0.90;;
57826;SDS011;43656;57.746;11.780;2023-04-03T03:36:54;3.50;;;1.00;;
57826;SDS011;43656;57.746;11.780;2023-04-03T03:39:20;2.33;;;0.65;;
57826;SDS011;43656;57.746;11.780;2023-04-03T03:41:46;3.88;;;1.05;;
57826;SDS011;43656;57.746;11.780;2023-04-03T03:44:11;5.53;;;1.00;;
57826;SDS011;43656;57.746;11.780;2023-04-03T03:46:36;2.38;;;0.60;;
57826;SDS011;43656;57.746;11.780;2023-04-03T03:49:02;2.85;;;0.80;;
57826;SDS011;43656;57.746;11.780;2023-04-03T03:51:27;5.82;;;0.90;;
57826;SDS011;43656;57.746;11.780;2023-04-03T03:53:53;12.18;;;1.13;;
57826;SDS011;43656;57.746;11.780;2023-04-03T03:56:18;2.42;;;1.00;;
57826;SDS011;43656;57.746;11.780;2023-04-03T03:58:45;3.90;;;0.70;;
57826;SDS011;43656;57.746;11.780;2023-04-03T04:01:10;4.05;;;0.80;;
57826;SDS011;43656;57.746;11.780;2023-04-03T04:03:36;3.20;;;0.90;;
57826;SDS011;43656;57.746;11.780;2023-04-03T04:06:02;4.45;;;0.90;;
57826;SDS011;43656;57.746;11.780;2023-04-03T04:08:27;2.33;;;0.73;;
57826;SDS011;43656;57.746;11.780;2023-04-03T04:10:53;3.15;;;0.95;;
57826;SDS011;43656;57.746;11.780;2023-04-03T04:13:18;2.45;;;0.77;;
57826;SDS011;43656;57.746;11.780;2023-04-03T04:15:43;2.70;;;0.93;;
57826;SDS011;43656;57.746;11.780;2023-04-03T04:18:09;2.42;;;0.80;;
57826;SDS011;43656;57.746;11.780;2023-04-03T04:20:35;4.00;;;0.85;;
57826;SDS011;43656;57.746;11.780;2023-04-03T04:23:00;2.53;;;1.05;;
57826;SDS011;43656;57.746;11.780;2023-04-03T04:25:26;5.15;;;1.55;;
57826;SDS011;43656;57.746;11.780;2023-04-03T04:27:51;5.03;;;1.35;;
57826;SDS011;43656;57.746;11.780;2023-04-03T04:30:17;8.10;;;1.58;;
57826;SDS011;43656;57.746;11.780;2023-04-03T04:32:42;3.97;;;1.50;;
57826;SDS011;43656;57.746;11.780;2023-04-03T04:35:08;2.95;;;1.50;;
57826;SDS011;43656;57.746;11.780;2023-04-03T04:37:34;6.57;;;1.42;;
57826;SDS011;43656;57.746;11.780;2023-04-03T04:39:59;4.65;;;1.27;;
57826;SDS011;43656;57.746;11.780;2023-04-03T04:42:25;3.38;;;1.10;;
57826;SDS011;43656;57.746;11.780;2023-04-03T04:44:50;4.32;;;1.38;;
57826;SDS011;43656;57.746;11.780;2023-04-03T04:47:16;2.97;;;1.30;;
57826;SDS011;43656;57.746;11.780;2023-04-03T04:49:41;4.63;;;1.25;;
57826;SDS011;43656;57.746;11.780;2023-04-03T04:52:07;3.80;;;1.40;;
57826;SDS011;43656;57.746;11.780;2023-04-03T04:54:32;3.33;;;1.25;;
57826;SDS011;43656;57.746;11.780;2023-04-03T04:56:59;5.32;;;1.40;;
57826;SDS011;43656;57.746;11.780;2023-04-03T04:59:24;2.08;;;1.00;;
57826;SDS011;43656;57.746;11.780;2023-04-03T05:01:50;5.55;;;1.52;;
57826;SDS011;43656;57.746;11.780;2023-04-03T05:04:15;3.53;;;1.30;;
57826;SDS011;43656;57.746;11.780;2023-04-03T05:06:41;4.18;;;1.30;;
57826;SDS011;43656;57.746;11.780;2023-04-03T05:09:06;6.80;;;1.27;;
57826;SDS011;43656;57.746;11.780;2023-04-03T05:11:32;3.85;;;1.10;;
57826;SDS011;43656;57.746;11.780;2023-04-03T05:13:57;2.65;;;1.05;;
57826;SDS011;43656;57.746;11.780;2023-04-03T05:16:23;4.43;;;1.20;;
57826;SDS011;43656;57.746;11.780;2023-04-03T05:18:48;2.90;;;1.00;;
57826;SDS011;43656;57.746;11.780;2023-04-03T05:21:14;4.80;;;1.50;;
57826;SDS011;43656;57.746;11.780;2023-04-03T05:23:39;2.70;;;1.27;;
57826;SDS011;43656;57.746;11.780;2023-04-03T05:26:05;4.97;;;1.73;;
57826;SDS011;43656;57.746;11.780;2023-04-03T05:28:30;6.07;;;1.40;;
57826;SDS011;43656;57.746;11.780;2023-04-03T05:30:57;3.22;;;1.27;;
57826;SDS011;43656;57.746;11.780;2023-04-03T05:33:23;2.88;;;1.38;;
57826;SDS011;43656;57.746;11.780;2023-04-03T05:35:51;4.22;;;1.45;;
57826;SDS011;43656;57.746;11.780;2023-04-03T05:38:16;5.75;;;1.45;;
57826;SDS011;43656;57.746;11.780;2023-04-03T05:40:42;5.22;;;1.40;;
57826;SDS011;43656;57.746;11.780;2023-04-03T05:43:07;4.65;;;1.40;;
57826;SDS011;43656;57.746;11.780;2023-04-03T05:45:33;2.78;;;1.25;;
57826;SDS011;43656;57.746;11.780;2023-04-03T05:47:58;4.75;;;1.23;;
57826;SDS011;43656;57.746;11.780;2023-04-03T05:50:24;3.80;;;1.35;;
57826;SDS011;43656;57.746;11.780;2023-04-03T05:52:50;3.60;;;1.45;;
57826;SDS011;43656;57.746;11.780;2023-04-03T05:55:19;5.22;;;1.60;;
57826;SDS011;43656;57.746;11.780;2023-04-03T05:57:44;4.78;;;1.38;;
57826;SDS011;43656;57.746;11.780;2023-04-03T06:00:13;2.88;;;1.40;;
57826;SDS011;43656;57.746;11.780;2023-04-03T06:02:40;5.82;;;1.33;;
57826;SDS011;43656;57.746;11.780;2023-04-03T06:05:07;5.45;;;1.50;;
57826;SDS011;43656;57.746;11.780;2023-04-03T06:07:33;4.45;;;1.23;;
57826;SDS011;43656;57.746;11.780;2023-04-03T06:09:58;3.70;;;1.35;;
57826;SDS011;43656;57.746;11.780;2023-04-03T06:12:25;3.90;;;1.35;;
57826;SDS011;43656;57.746;11.780;2023-04-03T06:14:50;3.10;;;1.40;;
57826;SDS011;43656;57.746;11.780;2023-04-03T06:17:17;3.08;;;1.88;;
57826;SDS011;43656;57.746;11.780;2023-04-03T06:19:43;6.22;;;1.45;;
57826;SDS011;43656;57.746;11.780;2023-04-03T06:22:09;6.13;;;1.50;;
57826;SDS011;43656;57.746;11.780;2023-04-03T06:24:36;4.93;;;1.50;;
57826;SDS011;43656;57.746;11.780;2023-04-03T06:27:02;5.70;;;1.33;;
57826;SDS011;43656;57.746;11.780;2023-04-03T06:29:27;5.85;;;1.20;;
57826;SDS011;43656;57.746;11.780;2023-04-03T06:31:53;3.08;;;1.27;;
57826;SDS011;43656;57.746;11.780;2023-04-03T06:34:18;5.03;;;1.25;;
57826;SDS011;43656;57.746;11.780;2023-04-03T06:36:44;3.75;;;1.30;;
57826;SDS011;43656;57.746;11.780;2023-04-03T06:39:14;2.50;;;1.08;;
57826;SDS011;43656;57.746;11.780;2023-04-03T06:41:40;9.52;;;1.25;;
57826;SDS011;43656;57.746;11.780;2023-04-03T06:44:06;6.10;;;1.30;;
57826;SDS011;43656;57.746;11.780;2023-04-03T06:46:36;4.95;;;1.00;;
57826;SDS011;43656;57.746;11.780;2023-04-03T06:49:02;4.47;;;1.73;;
57826;SDS011;43656;57.746;11.780;2023-04-03T06:51:29;9.73;;;1.75;;
57826;SDS011;43656;57.746;11.780;2023-04-03T06:53:56;7.22;;;1.75;;
57826;SDS011;43656;57.746;11.780;2023-04-03T06:56:23;6.00;;;1.92;;
57826;SDS011;43656;57.746;11.780;2023-04-03T06:58:50;8.05;;;2.20;;
57826;SDS011;43656;57.746;11.780;2023-04-03T07:01:17;5.18;;;1.70;;
57826;SDS011;43656;57.746;11.780;2023-04-03T07:03:44;8.82;;;1.70;;
57826;SDS011;43656;57.746;11.780;2023-04-03T07:06:11;6.20;;;1.65;;
57826;SDS011;43656;57.746;11.780;2023-04-03T07:08:38;6.28;;;1.60;;
57826;SDS011;43656;57.746;11.780;2023-04-03T07:11:04;6.82;;;1.67;;
57826;SDS011;43656;57.746;11.780;2023-04-03T07:13:30;4.50;;;1.48;;
57826;SDS011;43656;57.746;11.780;2023-04-03T07:15:56;8.30;;;1.40;;
57826;SDS011;43656;57.746;11.780;2023-04-03T07:18:21;6.72;;;1.83;;
57826;SDS011;43656;57.746;11.780;2023-04-03T07:20:47;3.72;;;1.30;;
57826;SDS011;43656;57.746;11.780;2023-04-03T07:23:13;5.97;;;1.48;;
57826;SDS011;43656;57.746;11.780;2023-04-03T07:25:42;5.85;;;1.00;;
57826;SDS011;43656;57.746;11.780;2023-04-03T07:28:12;7.93;;;1.08;;
57826;SDS011;43656;57.746;11.780;2023-04-03T07:30:45;5.57;;;0.80;;
57826;SDS011;43656;57.746;11.780;2023-04-03T07:33:16;5.72;;;1.10;;
57826;SDS011;43656;57.746;11.780;2023-04-03T07:35:43;10.57;;;1.20;;
57826;SDS011;43656;57.746;11.780;2023-04-03T07:38:10;8.18;;;1.60;;
57826;SDS011;43656;57.746;11.780;2023-04-03T07:40:37;8.35;;;1.45;;
57826;SDS011;43656;57.746;11.780;2023-04-03T07:43:03;4.75;;;1.30;;
57826;SDS011;43656;57.746;11.780;2023-04-03T07:45:30;3.33;;;1.30;;
57826;SDS011;43656;57.746;11.780;2023-04-03T07:47:56;5.25;;;1.58;;
57826;SDS011;43656;57.746;11.780;2023-04-03T07:50:22;5.90;;;1.17;;
57826;SDS011;43656;57.746;11.780;2023-04-03T07:52:47;4.45;;;1.38;;
57826;SDS011;43656;57.746;11.780;2023-04-03T07:55:13;6.60;;;1.42;;
57826;SDS011;43656;57.746;11.780;2023-04-03T07:57:39;2.25;;;1.30;;
57826;SDS011;43656;57.746;11.780;2023-04-03T08:00:05;3.72;;;1.40;;
57826;SDS011;43656;57.746;11.780;2023-04-03T08:02:31;4.53;;;1.42;;
57826;SDS011;43656;57.746;11.780;2023-04-03T08:04:57;2.83;;;1.50;;
57826;SDS011;43656;57.746;11.780;2023-04-03T08:07:23;3.70;;;1.60;;
57826;SDS011;43656;57.746;11.780;2023-04-03T08:09:49;5.70;;;1.35;;
57826;SDS011;43656;57.746;11.780;2023-04-03T08:12:14;6.07;;;1.20;;
57826;SDS011;43656;57.746;11.780;2023-04-03T08:14:40;5.78;;;1.40;;
57826;SDS011;43656;57.746;11.780;2023-04-03T08:17:06;4.43;;;1.40;;
57826;SDS011;43656;57.746;11.780;2023-04-03T08:19:34;8.40;;;1.85;;
57826;SDS011;43656;57.746;11.780;2023-04-03T08:22:00;7.20;;;1.50;;
57826;SDS011;43656;57.746;11.780;2023-04-03T08:24:28;3.55;;;1.48;;
57826;SDS011;43656;57.746;11.780;2023-04-03T08:26:53;4.13;;;1.67;;
57826;SDS011;43656;57.746;11.780;2023-04-03T08:29:19;9.57;;;2.33;;
57826;SDS011;43656;57.746;11.780;2023-04-03T08:31:46;5.82;;;1.50;;
57826;SDS011;43656;57.746;11.780;2023-04-03T08:34:12;6.82;;;1.30;;
57826;SDS011;43656;57.746;11.780;2023-04-03T08:36:38;7.68;;;1.77;;
57826;SDS011;43656;57.746;11.780;2023-04-03T08:39:04;6.57;;;1.70;;
57826;SDS011;43656;57.746;11.780;2023-04-03T08:41:31;6.57;;;1.52;;
57826;SDS011;43656;57.746;11.780;2023-04-03T08:49:27;3.03;;;1.27;;
57826;SDS011;43656;57.746;11.780;2023-04-03T08:52:19;4.80;;;1.30;;
57826;SDS011;43656;57.746;11.780;2023-04-03T08:58:05;6.25;;;1.20;;
57826;SDS011;43656;57.746;11.780;2023-04-03T09:00:47;8.13;;;1.45;;
57826;SDS011;43656;57.746;11.780;2023-04-03T09:03:16;3.60;;;0.88;;
57826;SDS011;43656;57.746;11.780;2023-04-03T09:08:29;8.45;;;1.20;;
57826;SDS011;43656;57.746;11.780;2023-04-03T09:21:41;3.63;;;0.98;;
57826;SDS011;43656;57.746;11.780;2023-04-03T09:24:07;9.13;;;1.05;;
57826;SDS011;43656;57.746;11.780;2023-04-03T09:29:24;4.78;;;1.05;;
57826;SDS011;43656;57.746;11.780;2023-04-03T09:32:01;3.15;;;1.00;;
57826;SDS011;43656;57.746;11.780;2023-04-03T09:34:37;10.98;;;1.20;;
57826;SDS011;43656;57.746;11.780;2023-04-03T09:37:06;4.13;;;1.08;;
57826;SDS011;43656;57.746;11.780;2023-04-03T09:39:54;2.35;;;0.80;;
57826;SDS011;43656;57.746;11.780;2023-04-03T09:42:21;8.27;;;1.23;;
57826;SDS011;43656;57.746;11.780;2023-04-03T09:44:56;5.72;;;1.50;;
57826;SDS011;43656;57.746;11.780;2023-04-03T09:47:32;6.50;;;1.15;;
57826;SDS011;43656;57.746;11.780;2023-04-03T09:50:09;3.95;;;1.00;;
57826;SDS011;43656;57.746;11.780;2023-04-03T09:52:47;4.05;;;0.93;;
57826;SDS011;43656;57.746;11.780;2023-04-03T09:57:42;4.07;;;0.80;;
57826;SDS011;43656;57.746;11.780;2023-04-03T10:00:41;7.10;;;1.00;;
57826;SDS011;43656;57.746;11.780;2023-04-03T10:03:04;5.75;;;0.93;;
57826;SDS011;43656;57.746;11.780;2023-04-03T10:05:38;4.30;;;1.00;;
57826;SDS011;43656;57.746;11.780;2023-04-03T10:10:47;3.67;;;0.80;;
57826;SDS011;43656;57.746;11.780;2023-04-03T10:13:29;7.13;;;0.73;;
57826;SDS011;43656;57.746;11.780;2023-04-03T10:16:09;3.75;;;0.70;;
57826;SDS011;43656;57.746;11.780;2023-04-03T10:18:40;2.95;;;0.68;;
57826;SDS011;43656;57.746;11.780;2023-04-03T10:21:15;2.95;;;0.60;;
57826;SDS011;43656;57.746;11.780;2023-04-03T10:26:59;2.10;;;0.70;;
57826;SDS011;43656;57.746;11.780;2023-04-03T10:29:40;1.67;;;0.60;;
57826;SDS011;43656;57.746;11.780;2023-04-03T10:35:25;1.67;;;0.73;;
57826;SDS011;43656;57.746;11.780;2023-04-03T10:38:01;2.20;;;0.60;;
57826;SDS011;43656;57.746;11.780;2023-04-03T10:40:30;3.72;;;0.60;;
57826;SDS011;43656;57.746;11.780;2023-04-03T10:56:37;1.35;;;0.57;;
57826;SDS011;43656;57.746;11.780;2023-04-03T10:59:18;1.95;;;0.55;;
57826;SDS011;43656;57.746;11.780;2023-04-03T11:02:05;2.45;;;0.68;;
57826;SDS011;43656;57.746;11.780;2023-04-03T11:04:48;3.60;;;0.82;;
57826;SDS011;43656;57.746;11.780;2023-04-03T11:07:21;2.58;;;0.60;;
57826;SDS011;43656;57.746;11.780;2023-04-03T11:09:53;1.63;;;0.47;;
57826;SDS011;43656;57.746;11.780;2023-04-03T11:12:34;3.75;;;0.50;;
57826;SDS011;43656;57.746;11.780;2023-04-03T11:15:11;2.63;;;0.70;;
57826;SDS011;43656;57.746;11.780;2023-04-03T11:17:40;1.83;;;0.70;;
57826;SDS011;43656;57.746;11.780;2023-04-03T11:22:50;3.22;;;0.52;;
57826;SDS011;43656;57.746;11.780;2023-04-03T11:25:46;1.88;;;0.50;;
57826;SDS011;43656;57.746;11.780;2023-04-03T11:28:17;1.67;;;0.50;;
57826;SDS011;43656;57.746;11.780;2023-04-03T11:30:47;1.80;;;0.47;;
57826;SDS011;43656;57.746;11.780;2023-04-03T11:39:24;2.10;;;0.50;;
57826;SDS011;43656;57.746;11.780;2023-04-03T11:44:30;4.55;;;0.57;;
57826;SDS011;43656;57.746;11.780;2023-04-03T11:47:00;2.03;;;0.50;;
57826;SDS011;43656;57.746;11.780;2023-04-03T12:05:53;2.47;;;0.60;;
57826;SDS011;43656;57.746;11.780;2023-04-03T12:16:07;1.63;;;0.30;;
57826;SDS011;43656;57.746;11.780;2023-04-03T12:21:18;1.95;;;0.52;;
57826;SDS011;43656;57.746;11.780;2023-04-03T12:29:02;1.60;;;0.38;;
57826;SDS011;43656;57.746;11.780;2023-04-03T12:31:42;1.77;;;0.57;;
57826;SDS011;43656;57.746;11.780;2023-04-03T12:42:25;1.70;;;0.40;;
57826;SDS011;43656;57.746;11.780;2023-04-03T12:45:10;1.77;;;0.50;;
57826;SDS011;43656;57.746;11.780;2023-04-03T12:47:44;1.35;;;0.30;;
57826;SDS011;43656;57.746;11.780;2023-04-03T12:50:30;1.25;;;0.47;;
57826;SDS011;43656;57.746;11.780;2023-04-03T12:54:00;2.65;;;0.40;;
57826;SDS011;43656;57.746;11.780;2023-04-03T12:56:22;2.30;;;0.50;;
57826;SDS011;43656;57.746;11.780;2023-04-03T12:58:48;1.35;;;0.30;;
57826;SDS011;43656;57.746;11.780;2023-04-03T13:01:16;2.30;;;0.40;;
57826;SDS011;43656;57.746;11.780;2023-04-03T13:03:44;2.17;;;0.47;;
57826;SDS011;43656;57.746;11.780;2023-04-03T13:08:51;1.45;;;0.50;;
57826;SDS011;43656;57.746;11.780;2023-04-03T13:11:18;0.90;;;0.30;;
57826;SDS011;43656;57.746;11.780;2023-04-03T13:16:30;1.05;;;0.60;;
57826;SDS011;43656;57.746;11.780;2023-04-03T13:18:57;1.60;;;0.50;;
57826;SDS011;43656;57.746;11.780;2023-04-03T13:21:24;2.25;;;0.45;;
57826;SDS011;43656;57.746;11.780;2023-04-03T13:23:54;2.08;;;0.40;;
57826;SDS011;43656;57.746;11.780;2023-04-03T13:26:24;2.47;;;0.50;;
57826;SDS011;43656;57.746;11.780;2023-04-03T13:28:54;1.80;;;0.50;;
57826;SDS011;43656;57.746;11.780;2023-04-03T13:31:42;2.25;;;0.40;;
57826;SDS011;43656;57.746;11.780;2023-04-03T13:34:12;2.17;;;0.40;;
57826;SDS011;43656;57.746;11.780;2023-04-03T13:36:46;1.53;;;0.40;;
57826;SDS011;43656;57.746;11.780;2023-04-03T13:39:23;2.08;;;0.50;;
57826;SDS011;43656;57.746;11.780;2023-04-03T13:41:51;1.60;;;0.50;;
57826;SDS011;43656;57.746;11.780;2023-04-03T13:46:51;1.38;;;0.50;;
57826;SDS011;43656;57.746;11.780;2023-04-03T13:51:53;3.80;;;0.70;;
57826;SDS011;43656;57.746;11.780;2023-04-03T13:56:47;2.38;;;0.52;;
57826;SDS011;43656;57.746;11.780;2023-04-03T13:59:23;2.65;;;0.60;;
57826;SDS011;43656;57.746;11.780;2023-04-03T14:04:28;1.48;;;0.50;;
57826;SDS011;43656;57.746;11.780;2023-04-03T14:06:57;1.17;;;0.50;;
57826;SDS011;43656;57.746;11.780;2023-04-03T14:09:24;3.72;;;0.90;;
57826;SDS011;43656;57.746;11.780;2023-04-03T14:11:53;4.05;;;0.63;;
57826;SDS011;43656;57.746;11.780;2023-04-03T14:14:30;1.48;;;0.40;;
57826;SDS011;43656;57.746;11.780;2023-04-03T14:16:58;2.58;;;0.70;;
57826;SDS011;43656;57.746;11.780;2023-04-03T14:19:27;3.03;;;0.52;;
57826;SDS011;43656;57.746;11.780;2023-04-03T14:21:58;3.03;;;0.82;;
57826;SDS011;43656;57.746;11.780;2023-04-03T14:24:25;1.60;;;0.43;;
57826;SDS011;43656;57.746;11.780;2023-04-03T14:26:52;3.83;;;0.70;;
57826;SDS011;43656;57.746;11.780;2023-04-03T14:29:19;2.58;;;0.70;;
57826;SDS011;43656;57.746;11.780;2023-04-03T14:31:46;1.55;;;0.50;;
57826;SDS011;43656;57.746;11.780;2023-04-03T14:34:13;2.80;;;0.73;;
57826;SDS011;43656;57.746;11.780;2023-04-03T14:36:40;2.40;;;0.70;;
57826;SDS011;43656;57.746;11.780;2023-04-03T14:39:10;3.20;;;0.32;;
57826;SDS011;43656;57.746;11.780;2023-04-03T14:41:41;2.53;;;0.50;;
57826;SDS011;43656;57.746;11.780;2023-04-03T14:44:07;1.45;;;0.32;;
57826;SDS011;43656;57.746;11.780;2023-04-03T14:46:37;2.88;;;0.40;;
57826;SDS011;43656;57.746;11.780;2023-04-03T14:49:18;1.48;;;0.50;;
57826;SDS011;43656;57.746;11.780;2023-04-03T14:51:46;1.88;;;0.40;;
57826;SDS011;43656;57.746;11.780;2023-04-03T14:54:17;1.83;;;0.45;;
57826;SDS011;43656;57.746;11.780;2023-04-03T14:56:46;6.00;;;1.15;;
57826;SDS011;43656;57.746;11.780;2023-04-03T14:59:12;8.18;;;0.88;;
57826;SDS011;43656;57.746;11.780;2023-04-03T15:01:39;1.42;;;0.50;;
57826;SDS011;43656;57.746;11.780;2023-04-03T15:04:09;2.80;;;0.68;;
57826;SDS011;43656;57.746;11.780;2023-04-03T15:06:37;2.58;;;0.60;;
57826;SDS011;43656;57.746;11.780;2023-04-03T15:09:02;1.23;;;0.50;;
57826;SDS011;43656;57.746;11.780;2023-04-03T15:11:28;2.25;;;0.50;;
57826;SDS011;43656;57.746;11.780;2023-04-03T15:13:54;1.30;;;0.50;;
57826;SDS011;43656;57.746;11.780;2023-04-03T15:16:19;3.22;;;0.70;;
57826;SDS011;43656;57.746;11.780;2023-04-03T15:18:45;3.03;;;0.70;;
57826;SDS011;43656;57.746;11.780;2023-04-03T15:21:11;2.58;;;0.70;;
57826;SDS011;43656;57.746;11.780;2023-04-03T15:23:37;3.58;;;0.70;;
57826;SDS011;43656;57.746;11.780;2023-04-03T15:26:02;4.30;;;0.90;;
57826;SDS011;43656;57.746;11.780;2023-04-03T15:28:30;3.70;;;0.75;;
57826;SDS011;43656;57.746;11.780;2023-04-03T15:30:58;1.42;;;0.40;;
57826;SDS011;43656;57.746;11.780;2023-04-03T15:33:25;2.85;;;0.80;;
57826;SDS011;43656;57.746;11.780;2023-04-03T15:35:51;5.80;;;0.85;;
57826;SDS011;43656;57.746;11.780;2023-04-03T15:38:16;2.67;;;0.73;;
57826;SDS011;43656;57.746;11.780;2023-04-03T15:40:42;4.40;;;0.60;;
57826;SDS011;43656;57.746;11.780;2023-04-03T15:43:08;1.52;;;0.68;;
57826;SDS011;43656;57.746;11.780;2023-04-03T15:45:35;1.88;;;0.73;;
57826;SDS011;43656;57.746;11.780;2023-04-03T15:48:03;4.50;;;0.80;;
57826;SDS011;43656;57.746;11.780;2023-04-03T15:50:30;1.05;;;0.47;;
57826;SDS011;43656;57.746;11.780;2023-04-03T15:52:57;3.08;;;0.60;;
57826;SDS011;43656;57.746;11.780;2023-04-03T15:55:26;2.92;;;0.60;;
57826;SDS011;43656;57.746;11.780;2023-04-03T15:57:53;0.98;;;0.45;;
57826;SDS011;43656;57.746;11.780;2023-04-03T16:00:19;2.22;;;0.50;;
57826;SDS011;43656;57.746;11.780;2023-04-03T16:02:46;3.30;;;0.80;;
57826;SDS011;43656;57.746;11.780;2023-04-03T16:05:13;2.88;;;0.80;;
57826;SDS011;43656;57.746;11.780;2023-04-03T16:07:42;2.53;;;0.50;;
57826;SDS011;43656;57.746;11.780;2023-04-03T16:10:08;3.20;;;0.77;;
57826;SDS011;43656;57.746;11.780;2023-04-03T16:12:35;1.63;;;0.57;;
57826;SDS011;43656;57.746;11.780;2023-04-03T16:15:02;2.88;;;0.90;;
57826;SDS011;43656;57.746;11.780;2023-04-03T16:17:28;2.20;;;0.50;;
57826;SDS011;43656;57.746;11.780;2023-04-03T16:19:55;3.35;;;0.80;;
57826;SDS011;43656;57.746;11.780;2023-04-03T16:22:21;3.72;;;0.60;;
57826;SDS011;43656;57.746;11.780;2023-04-03T16:24:49;3.42;;;0.70;;
57826;SDS011;43656;57.746;11.780;2023-04-03T16:27:15;5.95;;;1.10;;
57826;SDS011;43656;57.746;11.780;2023-04-03T16:29:41;1.85;;;0.50;;
57826;SDS011;43656;57.746;11.780;2023-04-03T16:32:06;3.55;;;0.80;;
57826;SDS011;43656;57.746;11.780;2023-04-03T16:34:35;3.90;;;0.77;;
57826;SDS011;43656;57.746;11.780;2023-04-03T16:37:01;3.28;;;0.70;;
57826;SDS011;43656;57.746;11.780;2023-04-03T16:39:29;3.78;;;0.70;;
57826;SDS011;43656;57.746;11.780;2023-04-03T16:41:54;2.63;;;0.80;;
57826;SDS011;43656;57.746;11.780;2023-04-03T16:44:20;1.88;;;0.60;;
57826;SDS011;43656;57.746;11.780;2023-04-03T16:46:45;3.83;;;0.85;;